LiveATC.Net - Listen to live air traffic control over the Internet! Contact for advertising information

ICAO: KIAB  IATA: IAB   Airport: Mc Connell Air Force Base
City: Wichita   State/Province: Kansas
Country: United States   Continent: North America
KIAB METAR Weather: KIAB 010658Z AUTO 20006KT 10SM CLR M01/M03 A2997 RMK AO2 SLP162 T10151027
KIAB Flight Activity (FlightAware)
KIAB Airport Info   (AirNav) (iFlightPlanner)
KIAB VFR Sectional Chart   (iFlightPlanner) 
KIAB IFR Low Chart   (iFlightPlanner) 
KIAB Tower
Feed Status: UP   Listeners: 2
Listen right in your browser - requires Flash (in browser, requires Flash)
Click here to listen with your own player (launches your MP3 player)
KIAB Tower Audio Archives
Mc Connell Tower127.250

Feed courtesy of Hubris Communications


Unauthorized use prohibited. See Terms of Service

Find LiveATC Audio Streams

Airport/ARTCC Code

(e.g., 124.400, 128.75)
Site-wide search

Browse LiveATC Feeds
LiveATC Coverage Map
Top 50 LiveATC Feeds
Bad Weather Areas

Offer a LiveATC Feed
Press Inquiries

LiveATC on iPhone
LiveATC on Android

Windows Phone
Windows 8/10

LiveATC Mobile
(Mobile browser)

ATC Audio Archives
Interesting Recordings

LiveATC Forums

Home Page
Make a Donation
LiveATC Bookstore

Terms of Use
Privacy Policy

ATC/Radar Sites
U.S. ARTCC Freqs
Canadian Air Freqs


FAA Airport Status
Nat'l Airspace Status
Arrival Demand Charts

Server Software By:

Please make a donation to help us keep growing!